Time;durP1;ratioP1;P1;durP2;ratioP2;P2;SDS_P1;SDS_P2;PMS_P1;PMS_P2;Temp;Humidity;BMP_temperature;BMP_pressure;BME280_temperature;BME280_humidity;BME280_pressure;Samples;Min_cycle;Max_cycle;Signal;HPM_P1;HPM_P2
2023/12/02 00:01:59;;;;;;;9.63;6.10;;;0.70;99.90;;;;;;5045303;28;20237;-68
2023/12/02 00:04:28;;;;;;;10.13;5.88;;;0.70;99.90;;;;;;5054775;28;20233;-68
2023/12/02 00:06:56;;;;;;;7.68;5.28;;;0.70;99.90;;;;;;5053235;28;20202;-71
2023/12/02 00:09:24;;;;;;;9.65;6.10;;;0.60;99.90;;;;;;5053487;28;20264;-67
2023/12/02 00:11:52;;;;;;;9.32;5.50;;;0.70;99.90;;;;;;5053045;28;20916;-68
2023/12/02 00:14:20;;;;;;;8.80;5.88;;;0.70;99.90;;;;;;5053164;28;20688;-68
2023/12/02 00:16:48;;;;;;;11.05;5.90;;;0.80;99.90;;;;;;5053205;28;20222;-68
2023/12/02 00:19:16;;;;;;;6.95;4.85;;;0.80;99.90;;;;;;5053062;28;20578;-68
2023/12/02 00:21:45;;;;;;;6.93;5.32;;;0.80;99.90;;;;;;5052872;28;20202;-68
2023/12/02 00:24:13;;;;;;;9.23;5.95;;;0.80;99.90;;;;;;5055523;28;20307;-67
2023/12/02 00:26:41;;;;;;;6.47;5.50;;;0.80;99.90;;;;;;5057156;28;20216;-68
2023/12/02 00:29:09;;;;;;;8.23;5.30;;;0.80;99.90;;;;;;5052040;28;20206;-67
2023/12/02 00:31:37;;;;;;;8.32;5.53;;;0.80;99.90;;;;;;5053576;28;20308;-67
2023/12/02 00:34:05;;;;;;;7.70;5.78;;;0.80;99.90;;;;;;5054381;28;20304;-67
2023/12/02 00:36:33;;;;;;;7.60;5.07;;;0.80;99.90;;;;;;5059705;28;20222;-67
2023/12/02 00:39:02;;;;;;;9.98;5.88;;;0.70;99.90;;;;;;5052752;28;20194;-68
2023/12/02 00:41:30;;;;;;;8.48;5.53;;;0.80;99.90;;;;;;5057733;28;20201;-68
2023/12/02 00:43:58;;;;;;;5.72;5.13;;;0.80;99.90;;;;;;5056928;28;20217;-68
2023/12/02 00:46:26;;;;;;;8.55;6.10;;;0.80;99.90;;;;;;5057573;28;20277;-69
2023/12/02 00:48:54;;;;;;;6.15;4.90;;;0.70;99.90;;;;;;5060244;28;20233;-70
2023/12/02 00:51:23;;;;;;;7.03;5.10;;;0.70;99.90;;;;;;5057262;28;20201;-70
2023/12/02 00:53:50;;;;;;;7.32;5.00;;;0.60;99.90;;;;;;5052473;28;20234;-70
2023/12/02 00:56:20;;;;;;;7.55;5.25;;;0.50;99.90;;;;;;5052717;28;20214;-70
2023/12/02 00:58:47;;;;;;;8.75;5.50;;;0.50;99.90;;;;;;5052416;28;20296;-71
2023/12/02 01:01:15;;;;;;;8.40;5.40;;;0.50;99.90;;;;;;5052954;28;20293;-70
2023/12/02 01:03:43;;;;;;;7.57;5.32;;;0.40;99.90;;;;;;5052102;28;20788;-70
2023/12/02 01:06:11;;;;;;;6.30;4.80;;;0.40;99.90;;;;;;5052768;28;20286;-70
2023/12/02 01:08:39;;;;;;;7.82;5.28;;;0.40;99.90;;;;;;5051124;28;20686;-69
2023/12/02 01:11:07;;;;;;;6.38;4.85;;;0.40;99.90;;;;;;5052448;28;20201;-70
2023/12/02 01:13:36;;;;;;;7.32;4.88;;;0.50;99.90;;;;;;5052115;28;20287;-70
2023/12/02 01:16:05;;;;;;;5.70;4.63;;;0.50;99.90;;;;;;5052091;28;20236;-70
2023/12/02 01:18:33;;;;;;;6.93;4.88;;;0.50;99.90;;;;;;5052143;28;20706;-70
2023/12/02 01:21:01;;;;;;;7.18;5.05;;;0.50;99.90;;;;;;5057421;28;20198;-70
2023/12/02 01:23:29;;;;;;;9.20;4.85;;;0.50;99.90;;;;;;5054358;28;20231;-70
2023/12/02 01:25:57;;;;;;;7.65;5.07;;;0.60;99.90;;;;;;5052164;28;20210;-70
2023/12/02 01:28:24;;;;;;;5.75;4.43;;;0.60;99.90;;;;;;5051757;28;20206;-70
2023/12/02 01:30:54;;;;;;;5.28;4.47;;;0.50;99.90;;;;;;5052042;28;20263;-69
2023/12/02 01:33:21;;;;;;;7.57;4.70;;;0.50;99.90;;;;;;5051757;28;20253;-70
2023/12/02 01:35:49;;;;;;;6.28;4.57;;;0.50;99.90;;;;;;5052986;28;20253;-70
2023/12/02 01:38:17;;;;;;;8.43;4.40;;;0.50;99.90;;;;;;5051646;28;20626;-70
2023/12/02 01:40:46;;;;;;;5.28;3.92;;;0.50;99.90;;;;;;5051840;28;20288;-69
2023/12/02 01:43:23;;;;;;;5.28;4.78;;;0.60;99.90;;;;;;5051725;28;20218;-70
2023/12/02 01:45:51;;;;;;;5.35;4.70;;;0.60;99.90;;;;;;5051773;28;20236;-70
2023/12/02 01:48:20;;;;;;;7.80;5.10;;;0.50;99.90;;;;;;5051518;28;20197;-69
2023/12/02 01:50:49;;;;;;;7.28;5.10;;;0.50;99.90;;;;;;5051094;28;20214;-69
2023/12/02 01:53:16;;;;;;;8.43;4.72;;;0.50;99.90;;;;;;5051330;28;20218;-69
2023/12/02 01:55:44;;;;;;;6.57;4.88;;;0.50;99.90;;;;;;5059106;28;20629;-69
2023/12/02 01:58:13;;;;;;;5.20;4.03;;;0.50;99.90;;;;;;5052809;28;20279;-69
2023/12/02 02:00:40;;;;;;;5.22;4.13;;;0.50;99.90;;;;;;5050854;28;20321;-69
2023/12/02 02:03:09;;;;;;;5.72;4.22;;;0.50;99.90;;;;;;5051190;28;20202;-69
2023/12/02 02:05:38;;;;;;;5.72;4.38;;;0.50;99.90;;;;;;5051257;28;20217;-69
2023/12/02 02:08:06;;;;;;;5.57;4.28;;;0.40;99.90;;;;;;5058020;28;20197;-69
2023/12/02 02:10:34;;;;;;;8.02;4.55;;;0.40;99.90;;;;;;5055901;28;20295;-69
2023/12/02 02:13:01;;;;;;;5.75;4.40;;;0.40;99.90;;;;;;5050806;28;20244;-69
2023/12/02 02:15:29;;;;;;;6.38;4.70;;;0.40;99.90;;;;;;5052302;28;20214;-69
2023/12/02 02:17:57;;;;;;;6.30;4.38;;;0.40;99.90;;;;;;5050867;28;20225;-69
2023/12/02 02:20:25;;;;;;;7.13;4.18;;;0.40;99.90;;;;;;5050646;28;20234;-68
2023/12/02 02:22:54;;;;;;;5.70;4.45;;;0.40;99.90;;;;;;5050689;28;20614;-69
2023/12/02 02:25:22;;;;;;;5.68;4.25;;;0.40;99.90;;;;;;5050893;28;20676;-69
2023/12/02 02:27:50;;;;;;;7.38;4.43;;;0.40;99.90;;;;;;5051053;28;20205;-69
2023/12/02 02:30:18;;;;;;;5.32;4.20;;;0.40;99.90;;;;;;5050945;28;20254;-69
2023/12/02 02:32:46;;;;;;;5.90;4.70;;;0.40;99.90;;;;;;5050204;28;20233;-70
2023/12/02 02:35:14;;;;;;;6.35;4.10;;;0.50;99.90;;;;;;5048569;28;20230;-70
2023/12/02 02:37:42;;;;;;;6.75;3.50;;;0.50;99.90;;;;;;5053092;28;20257;-69
2023/12/02 02:40:12;;;;;;;4.10;3.70;;;0.50;99.90;;;;;;5058678;28;20255;-69
2023/12/02 02:42:41;;;;;;;4.97;4.35;;;0.50;99.90;;;;;;5050605;28;20617;-69
2023/12/02 02:45:09;;;;;;;5.28;3.63;;;0.50;99.90;;;;;;5054189;28;20249;-69
2023/12/02 02:47:37;;;;;;;5.22;3.90;;;0.50;99.90;;;;;;5054839;28;20213;-69
2023/12/02 02:50:06;;;;;;;5.72;4.20;;;0.50;99.90;;;;;;5055379;28;20292;-69
2023/12/02 02:52:34;;;;;;;5.55;4.13;;;0.50;99.90;;;;;;5057882;28;20630;-69
2023/12/02 02:55:02;;;;;;;4.68;3.63;;;0.50;99.90;;;;;;5050977;28;20234;-69
2023/12/02 02:57:31;;;;;;;4.88;4.03;;;0.50;99.90;;;;;;5053722;28;20225;-69
2023/12/02 02:59:59;;;;;;;4.07;3.55;;;0.40;99.90;;;;;;5050519;28;20217;-70
2023/12/02 03:02:27;;;;;;;6.10;4.30;;;0.30;99.90;;;;;;5052333;28;20209;-70
2023/12/02 03:04:55;;;;;;;4.38;3.78;;;0.40;99.90;;;;;;5052841;28;20275;-69
2023/12/02 03:07:23;;;;;;;4.95;4.07;;;0.40;99.90;;;;;;5056618;28;20206;-70
2023/12/02 03:09:51;;;;;;;5.65;4.20;;;0.40;99.90;;;;;;5050372;28;20580;-69
2023/12/02 03:12:18;;;;;;;6.82;3.78;;;0.40;99.90;;;;;;5050720;28;20206;-70
2023/12/02 03:14:48;;;;;;;6.82;4.07;;;0.40;99.90;;;;;;5050290;28;20225;-69
2023/12/02 03:17:20;;;;;;;5.13;4.00;;;0.40;99.90;;;;;;5050842;28;20267;-69
2023/12/02 03:19:48;;;;;;;5.88;4.20;;;0.40;99.90;;;;;;5047698;28;20234;-70
2023/12/02 03:22:16;;;;;;;4.10;3.70;;;0.40;99.90;;;;;;5050335;28;20264;-71
2023/12/02 03:24:45;;;;;;;6.35;3.88;;;0.50;99.90;;;;;;5050185;28;20322;-71
2023/12/02 03:27:13;;;;;;;4.75;3.38;;;0.50;99.90;;;;;;5050594;28;20194;-71
2023/12/02 03:29:40;;;;;;;5.20;4.03;;;0.50;99.90;;;;;;5050390;28;20640;-70
2023/12/02 03:32:10;;;;;;;4.97;4.05;;;0.40;99.90;;;;;;5043432;28;20651;-70
2023/12/02 03:34:38;;;;;;;4.78;3.97;;;0.40;99.90;;;;;;5052398;28;20886;-70
2023/12/02 03:37:06;;;;;;;5.90;4.25;;;0.50;99.90;;;;;;5060437;28;20717;-70
2023/12/02 03:39:34;;;;;;;6.07;4.03;;;0.50;99.90;;;;;;5054250;28;20198;-70
2023/12/02 03:42:02;;;;;;;4.13;3.67;;;0.40;99.90;;;;;;5054030;28;20206;-70
2023/12/02 03:44:30;;;;;;;6.78;4.30;;;0.40;99.90;;;;;;5053830;28;20253;-70
2023/12/02 03:46:58;;;;;;;5.00;4.10;;;0.40;99.90;;;;;;5053730;28;20263;-70
2023/12/02 03:49:27;;;;;;;6.97;3.83;;;0.40;99.90;;;;;;5047716;28;20213;-70
2023/12/02 03:51:56;;;;;;;4.35;3.90;;;0.40;99.90;;;;;;5055216;28;20209;-69
2023/12/02 03:54:24;;;;;;;4.28;3.65;;;0.30;99.90;;;;;;5053925;28;20237;-69
2023/12/02 03:56:52;;;;;;;4.03;3.47;;;0.30;99.90;;;;;;5053666;28;20210;-70
2023/12/02 03:59:20;;;;;;;5.55;3.58;;;0.30;99.90;;;;;;5053539;28;20296;-69
2023/12/02 04:01:48;;;;;;;5.70;4.07;;;0.30;99.90;;;;;;5053508;28;20205;-70
2023/12/02 04:04:15;;;;;;;5.65;3.70;;;0.40;99.90;;;;;;5059170;28;20222;-69
2023/12/02 04:06:45;;;;;;;5.47;4.05;;;0.40;99.90;;;;;;5053415;28;20205;-70
2023/12/02 04:09:13;;;;;;;5.43;3.80;;;0.40;99.90;;;;;;5055547;28;20201;-70
2023/12/02 04:11:40;;;;;;;4.78;3.92;;;0.40;99.90;;;;;;5054997;28;20296;-70
2023/12/02 04:14:08;;;;;;;4.05;3.65;;;0.40;99.90;;;;;;5053202;28;20224;-70
2023/12/02 04:16:39;;;;;;;7.57;3.83;;;0.40;99.90;;;;;;5061200;28;20213;-69
2023/12/02 04:19:07;;;;;;;3.85;3.20;;;0.40;99.90;;;;;;5055969;28;20311;-70
2023/12/02 04:21:36;;;;;;;4.47;3.53;;;0.30;99.90;;;;;;5053283;28;20221;-70
2023/12/02 04:24:06;;;;;;;5.43;4.13;;;0.30;99.90;;;;;;5053113;28;20230;-70
2023/12/02 04:26:34;;;;;;;4.55;3.60;;;0.30;99.90;;;;;;5060916;28;20673;-70
2023/12/02 04:29:02;;;;;;;4.20;3.80;;;0.30;99.90;;;;;;5055860;28;20280;-70
2023/12/02 04:31:30;;;;;;;4.90;4.38;;;0.30;99.90;;;;;;5053176;28;20248;-70
2023/12/02 04:33:58;;;;;;;4.70;3.78;;;0.40;99.90;;;;;;5054947;28;20225;-70
2023/12/02 04:36:26;;;;;;;4.07;3.58;;;0.40;99.90;;;;;;5046700;28;20687;-71
2023/12/02 04:38:55;;;;;;;3.20;2.90;;;0.50;99.90;;;;;;5068628;28;20685;-70
2023/12/02 04:41:25;;;;;;;4.03;3.03;;;0.50;99.90;;;;;;5057244;28;20667;-70
2023/12/02 04:43:53;;;;;;;2.90;2.70;;;0.50;99.90;;;;;;5051857;28;20253;-70
2023/12/02 04:46:20;;;;;;;2.90;2.70;;;0.50;99.90;;;;;;5061939;28;20207;-70
2023/12/02 04:48:48;;;;;;;5.50;2.75;;;0.50;99.90;;;;;;5059112;28;20193;-71
2023/12/02 04:51:16;;;;;;;2.80;2.60;;;0.50;99.90;;;;;;5054464;28;20459;-71
2023/12/02 04:53:44;;;;;;;2.47;2.28;;;0.50;99.90;;;;;;5065172;28;20232;-71
2023/12/02 04:56:12;;;;;;;2.85;2.65;;;0.50;99.90;;;;;;5061056;28;20234;-70
2023/12/02 04:58:42;;;;;;;3.15;2.85;;;0.40;99.90;;;;;;5054781;28;20260;-71
2023/12/02 05:01:09;;;;;;;4.63;3.40;;;0.40;99.90;;;;;;5052917;28;20202;-70
2023/12/02 05:03:37;;;;;;;3.75;3.30;;;0.40;99.90;;;;;;5058369;28;20287;-70
2023/12/02 05:06:08;;;;;;;3.97;3.63;;;0.30;99.90;;;;;;5054905;28;20301;-70
2023/12/02 05:08:36;;;;;;;5.75;3.97;;;0.30;99.90;;;;;;5056918;28;20210;-70
2023/12/02 05:11:05;;;;;;;8.45;4.28;;;0.30;99.90;;;;;;5054466;28;20249;-70
2023/12/02 05:13:33;;;;;;;5.95;5.07;;;0.30;99.90;;;;;;5062323;28;20248;-70
2023/12/02 05:16:02;;;;;;;7.55;4.90;;;0.30;99.90;;;;;;5060098;28;20206;-70
2023/12/02 05:18:30;;;;;;;10.07;5.78;;;0.40;99.90;;;;;;5051931;28;20217;-70
2023/12/02 05:20:58;;;;;;;6.25;4.53;;;0.40;99.90;;;;;;5052082;28;20280;-70
2023/12/02 05:23:26;;;;;;;9.43;4.60;;;0.40;99.90;;;;;;5053386;28;20232;-71
2023/12/02 05:25:53;;;;;;;3.78;3.42;;;0.30;99.90;;;;;;5054320;28;20210;-70
2023/12/02 05:28:22;;;;;;;5.65;4.25;;;0.30;99.90;;;;;;5056106;28;20263;-71
2023/12/02 05:30:50;;;;;;;4.05;3.65;;;0.30;99.90;;;;;;5056781;28;20202;-71
2023/12/02 05:33:22;;;;;;;5.75;4.05;;;0.40;99.90;;;;;;5059263;28;20359;-71
2023/12/02 05:35:50;;;;;;;4.13;3.65;;;0.40;99.90;;;;;;5051921;28;20694;-71
2023/12/02 05:38:18;;;;;;;3.30;3.03;;;0.40;99.90;;;;;;5052925;28;20257;-71
2023/12/02 05:40:46;;;;;;;3.28;2.97;;;0.40;99.90;;;;;;5060101;28;20230;-71
2023/12/02 05:43:13;;;;;;;3.67;3.40;;;0.40;99.90;;;;;;5054143;28;20205;-70
2023/12/02 05:45:41;;;;;;;3.35;3.05;;;0.40;99.90;;;;;;5051544;28;20242;-70
2023/12/02 05:48:09;;;;;;;3.40;2.95;;;0.40;99.90;;;;;;5057595;28;20209;-70
2023/12/02 05:50:39;;;;;;;4.30;3.17;;;0.40;99.90;;;;;;5052341;28;20216;-71
2023/12/02 05:53:07;;;;;;;8.13;3.25;;;0.40;99.90;;;;;;5060460;28;20296;-71
2023/12/02 05:55:35;;;;;;;3.33;2.83;;;0.40;99.90;;;;;;5051282;28;20206;-71
2023/12/02 05:58:02;;;;;;;3.30;3.00;;;0.30;99.90;;;;;;5058448;28;20218;-71
2023/12/02 06:00:30;;;;;;;4.65;3.13;;;0.30;99.90;;;;;;5054106;28;20648;-71
2023/12/02 06:02:58;;;;;;;3.28;2.88;;;0.30;99.90;;;;;;5058169;28;20233;-71
2023/12/02 06:05:26;;;;;;;3.17;2.88;;;0.30;99.90;;;;;;5052760;28;20578;-71
2023/12/02 06:07:55;;;;;;;3.40;3.10;;;0.30;99.90;;;;;;5055937;28;20217;-71
2023/12/02 06:10:23;;;;;;;3.88;3.25;;;0.40;99.90;;;;;;5056457;28;20202;-69
2023/12/02 06:12:51;;;;;;;3.83;3.13;;;0.30;99.90;;;;;;5054854;28;20213;-69
2023/12/02 06:15:19;;;;;;;3.45;3.15;;;0.30;99.90;;;;;;5044185;28;20658;-69
2023/12/02 06:17:47;;;;;;;4.32;3.38;;;0.40;99.90;;;;;;5052632;28;20296;-71
2023/12/02 06:20:15;;;;;;;3.60;3.30;;;0.40;99.90;;;;;;5057129;28;20305;-71
2023/12/02 06:22:43;;;;;;;3.67;3.33;;;0.40;99.90;;;;;;5053685;28;20625;-71
2023/12/02 06:25:12;;;;;;;3.63;3.28;;;0.40;99.90;;;;;;5050740;28;20230;-71
2023/12/02 06:27:40;;;;;;;3.85;3.55;;;0.50;99.90;;;;;;5050982;28;20202;-70
2023/12/02 06:30:09;;;;;;;5.18;3.55;;;0.50;99.90;;;;;;5050903;28;20217;-70
2023/12/02 06:32:41;;;;;;;3.80;3.50;;;0.50;99.90;;;;;;5056403;28;20319;-70
2023/12/02 06:35:09;;;;;;;4.32;3.63;;;0.60;99.90;;;;;;5054881;28;20662;-71
2023/12/02 06:37:37;;;;;;;3.67;3.38;;;0.60;99.90;;;;;;5051315;28;20214;-71
2023/12/02 06:40:06;;;;;;;4.22;3.78;;;0.50;99.90;;;;;;5050916;28;20307;-70
2023/12/02 06:42:35;;;;;;;3.95;3.58;;;0.50;99.90;;;;;;5050980;28;20793;-71
2023/12/02 06:45:04;;;;;;;4.20;3.85;;;0.50;99.90;;;;;;5058294;28;20226;-71
2023/12/02 06:47:32;;;;;;;4.20;3.80;;;0.50;99.90;;;;;;5055450;28;20198;-70
2023/12/02 06:49:59;;;;;;;3.63;3.30;;;0.50;99.90;;;;;;5053637;28;20210;-69
2023/12/02 06:52:27;;;;;;;3.92;3.58;;;0.60;99.90;;;;;;5050740;28;20647;-69
2023/12/02 06:54:55;;;;;;;4.22;3.83;;;0.60;99.90;;;;;;5050334;28;20275;-69
2023/12/02 06:57:25;;;;;;;5.10;3.83;;;0.60;99.90;;;;;;5051216;28;20279;-69
2023/12/02 06:59:56;;;;;;;3.88;3.40;;;0.60;99.90;;;;;;5050561;28;20316;-72
2023/12/02 07:02:23;;;;;;;3.55;3.25;;;0.60;99.90;;;;;;5050284;28;20230;-72
2023/12/02 07:04:52;;;;;;;3.20;2.88;;;0.60;99.90;;;;;;5056781;28;20248;-72
2023/12/02 07:07:20;;;;;;;3.17;2.95;;;0.60;99.90;;;;;;5058682;28;20267;-72
2023/12/02 07:09:47;;;;;;;2.80;2.60;;;0.50;99.90;;;;;;5054163;28;20209;-71
2023/12/02 07:12:15;;;;;;;3.50;3.20;;;0.50;99.90;;;;;;5062894;28;20573;-71
2023/12/02 07:14:44;;;;;;;3.05;2.85;;;0.60;99.90;;;;;;5054624;28;20252;-72
2023/12/02 07:17:13;;;;;;;4.38;3.10;;;0.60;99.90;;;;;;5060901;28;20259;-71
2023/12/02 07:19:41;;;;;;;6.97;4.18;;;0.60;99.90;;;;;;5061421;28;20512;-71
2023/12/02 07:22:08;;;;;;;3.60;3.30;;;0.60;99.90;;;;;;5054159;28;20259;-70
2023/12/02 07:24:36;;;;;;;3.40;3.15;;;0.60;99.90;;;;;;5054600;28;20226;-71
2023/12/02 07:27:05;;;;;;;2.90;2.70;;;0.60;99.90;;;;;;5055752;28;20202;-71
2023/12/02 07:29:32;;;;;;;3.88;3.58;;;0.60;99.90;;;;;;5059960;28;20202;-71
2023/12/02 07:32:04;;;;;;;4.10;3.70;;;0.60;99.90;;;;;;5053999;28;20256;-73
2023/12/02 07:34:33;;;;;;;4.53;3.20;;;0.70;99.90;;;;;;5055093;28;20225;-71
2023/12/02 07:37:01;;;;;;;3.03;2.83;;;0.70;99.90;;;;;;5054361;28;20210;-71
2023/12/02 07:39:29;;;;;;;4.22;3.20;;;0.70;99.90;;;;;;5054216;28;20229;-71
2023/12/02 07:41:57;;;;;;;3.30;3.00;;;0.60;99.90;;;;;;5054297;28;20263;-71
2023/12/02 07:44:26;;;;;;;3.30;3.00;;;0.50;99.90;;;;;;5054018;28;20331;-71
2023/12/02 07:46:53;;;;;;;4.07;3.42;;;0.50;99.90;;;;;;5059535;28;20301;-72
2023/12/02 07:49:21;;;;;;;3.35;3.10;;;0.40;99.90;;;;;;5055074;28;20688;-71
2023/12/02 07:51:50;;;;;;;3.28;2.97;;;0.50;99.90;;;;;;5062976;28;20224;-70
2023/12/02 07:54:18;;;;;;;3.22;2.58;;;0.40;99.90;;;;;;5062757;28;20286;-71
2023/12/02 07:56:46;;;;;;;3.28;2.90;;;0.40;99.90;;;;;;5053496;28;20612;-71
2023/12/02 07:59:14;;;;;;;2.95;2.72;;;0.40;99.90;;;;;;5052197;28;20324;-72
2023/12/02 08:01:42;;;;;;;4.28;3.58;;;0.30;99.90;;;;;;5055673;28;20237;-72
2023/12/02 08:04:10;;;;;;;2.60;2.47;;;0.30;99.90;;;;;;5062476;28;20217;-72
2023/12/02 08:06:39;;;;;;;3.53;3.13;;;0.40;99.90;;;;;;5058297;28;20734;-71
2023/12/02 08:09:08;;;;;;;3.45;3.22;;;0.40;99.90;;;;;;5053583;28;20202;-71
2023/12/02 08:11:36;;;;;;;3.67;3.38;;;0.40;99.90;;;;;;5053561;28;20644;-71
2023/12/02 08:14:04;;;;;;;3.70;3.22;;;0.40;99.90;;;;;;5053314;28;20735;-71
2023/12/02 08:16:31;;;;;;;34.88;13.45;;;0.40;99.90;;;;;;5053513;28;20716;-68
2023/12/02 08:18:59;;;;;;;4.97;3.90;;;0.50;99.90;;;;;;5055996;28;20678;-71
2023/12/02 08:21:27;;;;;;;3.30;3.00;;;2.50;99.90;;;;;;5065034;28;20201;-72
2023/12/02 08:23:56;;;;;;;3.88;3.15;;;2.80;99.90;;;;;;5049595;28;20306;-72
2023/12/02 08:26:25;;;;;;;3.97;3.30;;;2.70;99.90;;;;;;5054491;28;20202;-72
2023/12/02 08:28:53;;;;;;;4.57;3.35;;;2.40;99.90;;;;;;5053679;28;20241;-72
2023/12/02 08:31:21;;;;;;;3.10;2.90;;;2.10;99.90;;;;;;5053251;28;20651;-72
2023/12/02 08:33:49;;;;;;;3.67;3.28;;;1.80;99.90;;;;;;5053371;28;20276;-72
2023/12/02 08:36:16;;;;;;;3.13;2.88;;;1.50;99.90;;;;;;5056917;28;20209;-72
2023/12/02 08:38:44;;;;;;;3.63;3.33;;;1.30;99.90;;;;;;5058754;28;20256;-71
2023/12/02 08:41:12;;;;;;;3.42;3.13;;;1.20;99.90;;;;;;5057108;28;20275;-72
2023/12/02 08:43:43;;;;;;;2.97;2.78;;;1.10;99.90;;;;;;5059560;28;20229;-71
2023/12/02 08:46:14;;;;;;;3.38;3.00;;;0.90;99.90;;;;;;5052945;28;20218;-71
2023/12/02 08:48:42;;;;;;;4.93;2.70;;;0.90;99.90;;;;;;5053028;28;20205;-72
2023/12/02 08:51:09;;;;;;;4.13;3.72;;;0.80;99.90;;;;;;5053912;28;20209;-72
2023/12/02 08:53:37;;;;;;;3.42;3.13;;;0.80;99.90;;;;;;5052634;28;20660;-72
2023/12/02 08:56:06;;;;;;;4.05;3.50;;;0.80;99.90;;;;;;5055318;28;20237;-72
2023/12/02 08:58:34;;;;;;;3.22;2.88;;;0.80;99.90;;;;;;5052675;28;20198;-71
2023/12/02 09:01:03;;;;;;;3.08;2.88;;;0.90;99.90;;;;;;5059588;28;20228;-72
2023/12/02 09:03:31;;;;;;;2.60;2.40;;;0.90;99.90;;;;;;5052157;28;20229;-71
2023/12/02 09:05:59;;;;;;;3.17;2.75;;;0.80;99.90;;;;;;5053883;28;20256;-71
2023/12/02 09:08:27;;;;;;;3.13;2.83;;;0.80;99.90;;;;;;5050748;28;20556;-72
2023/12/02 09:10:55;;;;;;;2.90;2.70;;;0.80;99.90;;;;;;5051364;28;20676;-72
2023/12/02 09:13:25;;;;;;;2.95;2.75;;;0.80;99.90;;;;;;5055832;28;20730;-73
2023/12/02 09:15:53;;;;;;;3.53;3.15;;;0.80;99.90;;;;;;5051799;28;20654;-73
2023/12/02 09:18:28;;;;;;;4.43;3.15;;;0.80;99.90;;;;;;5048884;28;20459;-72
2023/12/02 09:20:56;;;;;;;3.65;3.38;;;0.80;99.90;;;;;;5053263;28;20232;-72
2023/12/02 09:23:24;;;;;;;4.05;3.75;;;0.70;99.90;;;;;;5051716;28;20283;-73
2023/12/02 09:25:53;;;;;;;3.85;3.42;;;0.70;99.90;;;;;;5051273;28;20238;-73
2023/12/02 09:28:26;;;;;;;3.70;3.28;;;0.70;99.90;;;;;;5049539;28;20252;-72
2023/12/02 09:30:59;;;;;;;3.63;3.33;;;0.70;99.90;;;;;;5051067;28;20280;-72
2023/12/02 09:33:38;;;;;;;3.30;3.05;;;0.70;99.90;;;;;;5044699;28;20225;-71
2023/12/02 09:36:07;;;;;;;4.50;3.42;;;0.70;99.90;;;;;;5058369;28;20201;-72
2023/12/02 09:38:36;;;;;;;4.57;3.20;;;0.70;99.90;;;;;;5051763;28;20209;-72
2023/12/02 09:41:33;;;;;;;3.08;2.88;;;0.70;99.90;;;;;;5054779;28;20217;-73
2023/12/02 09:44:12;;;;;;;3.88;3.42;;;0.70;99.90;;;;;;5043745;28;20226;-73
2023/12/02 09:46:46;;;;;;;3.45;3.15;;;0.70;99.90;;;;;;5049569;28;20236;-70
2023/12/02 09:49:31;;;;;;;9.25;3.60;;;0.70;99.90;;;;;;5051569;28;21032;-72
2023/12/02 09:52:15;;;;;;;3.50;3.20;;;0.70;99.90;;;;;;5052794;28;20206;-73
2023/12/02 09:54:46;;;;;;;3.03;2.83;;;0.70;99.90;;;;;;5057812;28;20271;-73
2023/12/02 09:57:18;;;;;;;4.15;3.75;;;0.70;99.90;;;;;;5055882;28;20258;-72
2023/12/02 09:59:51;;;;;;;3.53;3.15;;;0.80;99.90;;;;;;5057822;28;20218;-72
2023/12/02 10:02:24;;;;;;;4.90;3.55;;;0.90;99.90;;;;;;5049575;28;20206;-72
2023/12/02 10:04:57;;;;;;;3.53;3.22;;;0.90;99.90;;;;;;5051150;28;20258;-71
2023/12/02 10:07:28;;;;;;;3.58;3.28;;;1.00;99.90;;;;;;5058520;28;20241;-72
2023/12/02 10:10:00;;;;;;;3.95;3.47;;;1.00;99.90;;;;;;5050539;28;20202;-72
2023/12/02 10:12:34;;;;;;;4.00;3.70;;;1.00;99.90;;;;;;5055173;28;20289;-72
2023/12/02 10:15:05;;;;;;;3.80;3.45;;;1.00;99.90;;;;;;5046900;28;20673;-73
2023/12/02 10:17:38;;;;;;;4.13;3.70;;;1.00;99.90;;;;;;5053526;28;20205;-72
2023/12/02 10:20:12;;;;;;;5.32;3.88;;;1.00;99.90;;;;;;5051232;28;20685;-72
2023/12/02 10:22:44;;;;;;;5.05;3.80;;;0.90;99.90;;;;;;5058171;28;20666;-72
2023/12/02 10:25:15;;;;;;;3.60;3.28;;;0.90;99.90;;;;;;5052158;28;20263;-72
2023/12/02 10:27:45;;;;;;;6.15;3.78;;;0.80;99.90;;;;;;5048244;28;20598;-73
2023/12/02 10:30:15;;;;;;;4.00;3.58;;;0.80;99.90;;;;;;5049255;28;20315;-73
2023/12/02 10:32:51;;;;;;;5.10;4.10;;;0.90;99.90;;;;;;5051058;28;20204;-72
2023/12/02 10:35:22;;;;;;;4.05;3.63;;;0.90;99.90;;;;;;5053624;28;20644;-70
2023/12/02 10:37:52;;;;;;;4.55;3.92;;;1.00;99.90;;;;;;5056365;28;20198;-72
2023/12/02 10:40:22;;;;;;;4.35;3.33;;;1.00;99.90;;;;;;5051413;28;20293;-71
2023/12/02 10:42:56;;;;;;;21.75;10.95;;;1.00;99.90;;;;;;5047977;28;20767;-71
2023/12/02 10:45:23;;;;;;;6.22;4.65;;;1.00;99.90;;;;;;5051849;28;20230;-71
2023/12/02 10:47:53;;;;;;;6.18;4.40;;;1.00;99.90;;;;;;5050832;28;20210;-71
2023/12/02 10:50:22;;;;;;;4.20;3.80;;;1.00;99.90;;;;;;5058537;28;20213;-71
2023/12/02 10:52:57;;;;;;;4.57;4.13;;;0.90;99.90;;;;;;5052355;28;20244;-72
2023/12/02 10:55:25;;;;;;;3.90;3.58;;;0.90;99.90;;;;;;5050876;28;20209;-71
2023/12/02 10:57:53;;;;;;;5.18;4.68;;;1.00;99.90;;;;;;5052399;28;20216;-71
2023/12/02 11:00:22;;;;;;;8.05;4.80;;;1.00;99.90;;;;;;5050318;28;20268;-71
2023/12/02 11:02:52;;;;;;;11.60;5.93;;;1.00;99.90;;;;;;5049522;28;20217;-71
2023/12/02 11:05:22;;;;;;;4.88;4.00;;;1.00;99.90;;;;;;5053474;28;20226;-72
2023/12/02 11:07:52;;;;;;;17.27;10.80;;;1.10;99.90;;;;;;5051248;28;20290;-73
2023/12/02 11:10:27;;;;;;;17.13;10.18;;;1.10;99.90;;;;;;5050781;28;20213;-74
2023/12/02 11:12:56;;;;;;;13.65;8.95;;;1.10;99.90;;;;;;5054028;28;20197;-74
2023/12/02 11:15:24;;;;;;;4.75;4.35;;;1.10;99.90;;;;;;5050742;28;20201;-73
2023/12/02 11:17:59;;;;;;;10.75;5.38;;;1.10;99.90;;;;;;5052629;28;20213;-72
2023/12/02 11:20:34;;;;;;;9.00;4.93;;;1.10;99.90;;;;;;5049077;28;22158;-72
2023/12/02 11:23:15;;;;;;;11.77;6.75;;;1.10;99.90;;;;;;5047777;28;20274;-74
2023/12/02 11:25:50;;;;;;;14.40;8.40;;;1.10;99.90;;;;;;5050306;28;20209;-72
2023/12/02 11:28:23;;;;;;;8.25;6.25;;;1.10;99.90;;;;;;5049576;28;20617;-73
2023/12/02 11:30:58;;;;;;;14.45;9.20;;;1.10;99.90;;;;;;5050436;28;20214;-72
2023/12/02 11:33:30;;;;;;;8.27;6.20;;;1.10;99.90;;;;;;5050555;28;20283;-73
2023/12/02 11:36:04;;;;;;;6.15;4.60;;;1.10;99.90;;;;;;5053697;28;20514;-73
2023/12/02 11:38:33;;;;;;;8.13;6.03;;;1.10;99.90;;;;;;5054574;28;20565;-72
2023/12/02 11:41:10;;;;;;;8.90;5.65;;;1.10;99.90;;;;;;5055014;28;20205;-71
2023/12/02 11:43:44;;;;;;;6.82;4.60;;;1.10;99.90;;;;;;5050607;28;20260;-72
2023/12/02 11:46:15;;;;;;;4.95;4.22;;;1.10;99.90;;;;;;5050168;28;20229;-71
2023/12/02 11:48:47;;;;;;;11.07;6.45;;;1.10;99.90;;;;;;5050367;28;20271;-71
2023/12/02 11:51:24;;;;;;;13.60;7.85;;;1.00;99.90;;;;;;5050131;28;20659;-72
2023/12/02 11:54:04;;;;;;;4.75;3.95;;;1.00;99.90;;;;;;5052880;28;20229;-71
2023/12/02 11:56:31;;;;;;;2.90;2.70;;;1.00;99.90;;;;;;5053584;28;20216;-71
2023/12/02 11:59:08;;;;;;;4.70;4.13;;;1.00;99.90;;;;;;5055383;28;20279;-71
2023/12/02 12:01:52;;;;;;;5.40;3.53;;;1.00;99.90;;;;;;5053658;28;20225;-71
2023/12/02 12:04:55;;;;;;;6.60;4.60;;;1.00;99.90;;;;;;5053662;28;20303;-72
2023/12/02 12:07:31;;;;;;;4.15;3.75;;;0.90;99.90;;;;;;5021629;28;20213;-72
2023/12/02 12:10:04;;;;;;;5.70;4.65;;;1.00;99.90;;;;;;5053553;28;20594;-72
2023/12/02 12:12:32;;;;;;;6.88;4.20;;;0.90;99.90;;;;;;5052906;28;20230;-71
2023/12/02 12:15:01;;;;;;;5.85;3.78;;;0.80;99.90;;;;;;5053358;28;20253;-71
2023/12/02 12:17:29;;;;;;;7.40;5.47;;;0.80;99.90;;;;;;5053453;28;20324;-71
2023/12/02 12:19:59;;;;;;;10.50;5.63;;;0.90;99.90;;;;;;5053551;28;20206;-71
2023/12/02 12:22:28;;;;;;;7.43;5.60;;;0.80;99.90;;;;;;5060091;28;20225;-72
2023/12/02 12:24:56;;;;;;;7.70;6.40;;;0.90;99.90;;;;;;5053629;28;20275;-71
2023/12/02 12:27:24;;;;;;;9.82;6.45;;;0.90;99.90;;;;;;5054492;28;20817;-71
2023/12/02 12:29:53;;;;;;;13.77;7.55;;;0.90;99.90;;;;;;5056316;28;20258;-71
2023/12/02 12:32:21;;;;;;;10.73;6.97;;;0.90;99.90;;;;;;5053093;28;20250;-71
2023/12/02 12:34:50;;;;;;;7.03;5.72;;;0.70;99.90;;;;;;5054481;28;20232;-72
2023/12/02 12:37:18;;;;;;;9.00;5.82;;;0.70;99.90;;;;;;5055745;28;20206;-71
2023/12/02 12:39:47;;;;;;;9.55;6.53;;;0.60;99.90;;;;;;5053239;28;20205;-73
2023/12/02 12:42:17;;;;;;;11.23;6.13;;;0.60;99.90;;;;;;5060549;28;20268;-72
2023/12/02 12:44:45;;;;;;;12.20;6.80;;;0.60;99.90;;;;;;5060197;28;20230;-72
2023/12/02 12:47:13;;;;;;;9.48;5.70;;;0.60;99.90;;;;;;5056492;28;20240;-71
2023/12/02 12:49:42;;;;;;;9.77;6.00;;;0.60;99.90;;;;;;5052703;28;20210;-71
2023/12/02 12:52:14;;;;;;;7.35;6.00;;;0.60;99.90;;;;;;5054341;28;20198;-71
2023/12/02 12:54:46;;;;;;;13.50;7.50;;;0.50;99.90;;;;;;5051419;28;20257;-72
2023/12/02 12:57:19;;;;;;;6.40;5.07;;;0.60;99.90;;;;;;5056382;28;20239;-71
2023/12/02 12:59:48;;;;;;;6.25;4.85;;;0.50;99.90;;;;;;5059636;28;20301;-71
2023/12/02 13:02:24;;;;;;;6.93;5.40;;;0.50;99.90;;;;;;5053213;28;20250;-71
2023/12/02 13:04:57;;;;;;;5.53;4.13;;;0.40;99.90;;;;;;5055364;28;20221;-72
2023/12/02 13:07:32;;;;;;;6.78;4.93;;;0.40;99.90;;;;;;5064964;28;20221;-72